sensor_id;sensor_type;location;lat;lon;timestamp;P1;durP1;ratioP1;P2;durP2;ratioP2
49972;SDS011;35865;49.798;10.968;2022-07-29T00:01:20;4.65;;;1.90;;
49972;SDS011;35865;49.798;10.968;2022-07-29T00:03:46;3.22;;;1.55;;
49972;SDS011;35865;49.798;10.968;2022-07-29T00:06:13;3.97;;;1.70;;
49972;SDS011;35865;49.798;10.968;2022-07-29T00:08:39;3.88;;;1.70;;
49972;SDS011;35865;49.798;10.968;2022-07-29T00:11:06;5.53;;;1.98;;
49972;SDS011;35865;49.798;10.968;2022-07-29T00:13:32;3.88;;;2.05;;
49972;SDS011;35865;49.798;10.968;2022-07-29T00:16:00;5.60;;;1.77;;
49972;SDS011;35865;49.798;10.968;2022-07-29T00:18:26;3.13;;;1.75;;
49972;SDS011;35865;49.798;10.968;2022-07-29T00:20:53;4.35;;;1.80;;
49972;SDS011;35865;49.798;10.968;2022-07-29T00:23:19;4.72;;;1.83;;
49972;SDS011;35865;49.798;10.968;2022-07-29T00:25:46;4.53;;;1.95;;
49972;SDS011;35865;49.798;10.968;2022-07-29T00:28:12;3.83;;;1.40;;
49972;SDS011;35865;49.798;10.968;2022-07-29T00:30:39;4.05;;;1.92;;
49972;SDS011;35865;49.798;10.968;2022-07-29T00:33:09;5.38;;;1.55;;
49972;SDS011;35865;49.798;10.968;2022-07-29T00:35:35;3.97;;;1.70;;
49972;SDS011;35865;49.798;10.968;2022-07-29T00:38:10;5.38;;;1.80;;
49972;SDS011;35865;49.798;10.968;2022-07-29T00:40:37;9.23;;;2.15;;
49972;SDS011;35865;49.798;10.968;2022-07-29T00:43:03;5.35;;;1.60;;
49972;SDS011;35865;49.798;10.968;2022-07-29T00:45:30;3.78;;;1.75;;
49972;SDS011;35865;49.798;10.968;2022-07-29T00:47:56;4.25;;;1.75;;
49972;SDS011;35865;49.798;10.968;2022-07-29T00:50:24;6.88;;;1.75;;
49972;SDS011;35865;49.798;10.968;2022-07-29T00:52:51;6.13;;;1.80;;
49972;SDS011;35865;49.798;10.968;2022-07-29T00:55:18;5.60;;;1.65;;
49972;SDS011;35865;49.798;10.968;2022-07-29T00:57:45;4.72;;;1.70;;
49972;SDS011;35865;49.798;10.968;2022-07-29T01:00:13;4.13;;;1.65;;
49972;SDS011;35865;49.798;10.968;2022-07-29T01:02:43;3.72;;;1.45;;
49972;SDS011;35865;49.798;10.968;2022-07-29T01:05:09;6.13;;;1.95;;
49972;SDS011;35865;49.798;10.968;2022-07-29T01:07:38;4.68;;;1.90;;
49972;SDS011;35865;49.798;10.968;2022-07-29T01:10:06;4.13;;;1.50;;
49972;SDS011;35865;49.798;10.968;2022-07-29T01:12:35;3.92;;;1.90;;
49972;SDS011;35865;49.798;10.968;2022-07-29T01:15:04;4.47;;;1.80;;
49972;SDS011;35865;49.798;10.968;2022-07-29T01:17:36;6.03;;;1.80;;
49972;SDS011;35865;49.798;10.968;2022-07-29T01:20:07;4.10;;;1.52;;
49972;SDS011;35865;49.798;10.968;2022-07-29T01:29:05;4.60;;;1.55;;
49972;SDS011;35865;49.798;10.968;2022-07-29T01:31:36;2.60;;;1.52;;
49972;SDS011;35865;49.798;10.968;2022-07-29T01:34:08;3.30;;;1.80;;
49972;SDS011;35865;49.798;10.968;2022-07-29T01:36:40;5.20;;;1.58;;
49972;SDS011;35865;49.798;10.968;2022-07-29T01:39:10;4.00;;;1.40;;
49972;SDS011;35865;49.798;10.968;2022-07-29T01:41:38;9.10;;;1.77;;
49972;SDS011;35865;49.798;10.968;2022-07-29T01:44:13;4.72;;;1.77;;
49972;SDS011;35865;49.798;10.968;2022-07-29T01:46:47;3.33;;;1.80;;
49972;SDS011;35865;49.798;10.968;2022-07-29T01:49:18;4.75;;;1.60;;
49972;SDS011;35865;49.798;10.968;2022-07-29T01:51:48;4.57;;;2.15;;
49972;SDS011;35865;49.798;10.968;2022-07-29T01:54:20;3.65;;;1.73;;
49972;SDS011;35865;49.798;10.968;2022-07-29T01:56:53;5.65;;;2.35;;
49972;SDS011;35865;49.798;10.968;2022-07-29T01:59:24;3.78;;;1.98;;
49972;SDS011;35865;49.798;10.968;2022-07-29T02:01:53;4.57;;;1.50;;
49972;SDS011;35865;49.798;10.968;2022-07-29T02:04:20;5.68;;;1.92;;
49972;SDS011;35865;49.798;10.968;2022-07-29T02:06:49;4.40;;;1.65;;
49972;SDS011;35865;49.798;10.968;2022-07-29T02:09:19;3.25;;;1.42;;
49972;SDS011;35865;49.798;10.968;2022-07-29T02:11:48;2.40;;;1.80;;
49972;SDS011;35865;49.798;10.968;2022-07-29T02:14:18;4.68;;;1.88;;
49972;SDS011;35865;49.798;10.968;2022-07-29T02:16:50;3.60;;;1.65;;
49972;SDS011;35865;49.798;10.968;2022-07-29T02:19:19;3.70;;;1.52;;
49972;SDS011;35865;49.798;10.968;2022-07-29T02:21:48;3.55;;;1.60;;
49972;SDS011;35865;49.798;10.968;2022-07-29T02:24:17;4.47;;;1.60;;
49972;SDS011;35865;49.798;10.968;2022-07-29T02:26:44;3.78;;;1.55;;
49972;SDS011;35865;49.798;10.968;2022-07-29T02:29:12;5.55;;;1.70;;
49972;SDS011;35865;49.798;10.968;2022-07-29T02:31:41;3.78;;;1.75;;
49972;SDS011;35865;49.798;10.968;2022-07-29T02:34:10;3.33;;;1.63;;
49972;SDS011;35865;49.798;10.968;2022-07-29T02:36:37;5.28;;;1.60;;
49972;SDS011;35865;49.798;10.968;2022-07-29T02:39:06;3.67;;;1.67;;
49972;SDS011;35865;49.798;10.968;2022-07-29T02:41:37;3.55;;;1.55;;
49972;SDS011;35865;49.798;10.968;2022-07-29T02:44:09;3.00;;;1.75;;
49972;SDS011;35865;49.798;10.968;2022-07-29T02:46:37;4.07;;;1.55;;
49972;SDS011;35865;49.798;10.968;2022-07-29T02:49:13;4.95;;;1.50;;
49972;SDS011;35865;49.798;10.968;2022-07-29T02:51:43;3.13;;;1.60;;
49972;SDS011;35865;49.798;10.968;2022-07-29T02:54:14;5.13;;;1.98;;
49972;SDS011;35865;49.798;10.968;2022-07-29T02:56:47;4.00;;;1.63;;
49972;SDS011;35865;49.798;10.968;2022-07-29T02:59:18;5.10;;;1.70;;
49972;SDS011;35865;49.798;10.968;2022-07-29T03:01:49;5.25;;;1.70;;
49972;SDS011;35865;49.798;10.968;2022-07-29T03:04:18;3.60;;;1.67;;
49972;SDS011;35865;49.798;10.968;2022-07-29T03:06:46;3.78;;;1.60;;
49972;SDS011;35865;49.798;10.968;2022-07-29T03:09:15;2.75;;;1.67;;
49972;SDS011;35865;49.798;10.968;2022-07-29T03:11:42;4.18;;;1.65;;
49972;SDS011;35865;49.798;10.968;2022-07-29T03:14:10;4.40;;;1.75;;
49972;SDS011;35865;49.798;10.968;2022-07-29T03:16:38;3.72;;;1.52;;
49972;SDS011;35865;49.798;10.968;2022-07-29T03:19:05;4.68;;;1.63;;
49972;SDS011;35865;49.798;10.968;2022-07-29T03:21:33;3.50;;;1.90;;
49972;SDS011;35865;49.798;10.968;2022-07-29T03:24:00;4.68;;;1.60;;
49972;SDS011;35865;49.798;10.968;2022-07-29T03:26:27;6.18;;;2.08;;
49972;SDS011;35865;49.798;10.968;2022-07-29T03:28:54;5.18;;;1.80;;
49972;SDS011;35865;49.798;10.968;2022-07-29T03:31:20;3.42;;;1.80;;
49972;SDS011;35865;49.798;10.968;2022-07-29T03:33:47;4.13;;;1.80;;
49972;SDS011;35865;49.798;10.968;2022-07-29T03:36:13;5.25;;;1.85;;
49972;SDS011;35865;49.798;10.968;2022-07-29T03:38:41;3.17;;;1.85;;
49972;SDS011;35865;49.798;10.968;2022-07-29T03:41:10;4.30;;;2.05;;
49972;SDS011;35865;49.798;10.968;2022-07-29T03:43:39;3.53;;;1.77;;
49972;SDS011;35865;49.798;10.968;2022-07-29T03:46:07;3.05;;;1.80;;
49972;SDS011;35865;49.798;10.968;2022-07-29T03:48:36;7.28;;;3.50;;
49972;SDS011;35865;49.798;10.968;2022-07-29T03:51:05;5.10;;;2.45;;
49972;SDS011;35865;49.798;10.968;2022-07-29T03:53:32;5.47;;;2.35;;
49972;SDS011;35865;49.798;10.968;2022-07-29T03:56:01;4.20;;;2.25;;
49972;SDS011;35865;49.798;10.968;2022-07-29T03:58:29;4.90;;;1.98;;
49972;SDS011;35865;49.798;10.968;2022-07-29T04:00:57;4.15;;;2.13;;
49972;SDS011;35865;49.798;10.968;2022-07-29T04:03:24;3.80;;;1.90;;
49972;SDS011;35865;49.798;10.968;2022-07-29T04:05:57;3.40;;;2.10;;
49972;SDS011;35865;49.798;10.968;2022-07-29T04:08:25;3.95;;;1.98;;
49972;SDS011;35865;49.798;10.968;2022-07-29T04:10:52;4.13;;;2.00;;
49972;SDS011;35865;49.798;10.968;2022-07-29T04:13:20;6.55;;;2.03;;
49972;SDS011;35865;49.798;10.968;2022-07-29T04:15:46;4.93;;;1.83;;
49972;SDS011;35865;49.798;10.968;2022-07-29T04:18:13;6.05;;;1.83;;
49972;SDS011;35865;49.798;10.968;2022-07-29T04:20:39;6.40;;;2.08;;
49972;SDS011;35865;49.798;10.968;2022-07-29T04:23:06;3.50;;;1.80;;
49972;SDS011;35865;49.798;10.968;2022-07-29T04:25:32;4.72;;;1.75;;
49972;SDS011;35865;49.798;10.968;2022-07-29T04:27:58;5.60;;;2.03;;
49972;SDS011;35865;49.798;10.968;2022-07-29T04:30:29;4.40;;;2.22;;
49972;SDS011;35865;49.798;10.968;2022-07-29T04:32:57;6.72;;;2.15;;
49972;SDS011;35865;49.798;10.968;2022-07-29T04:35:23;3.92;;;2.38;;
49972;SDS011;35865;49.798;10.968;2022-07-29T04:37:50;6.60;;;2.10;;
49972;SDS011;35865;49.798;10.968;2022-07-29T04:40:16;3.60;;;2.00;;
49972;SDS011;35865;49.798;10.968;2022-07-29T04:42:43;5.32;;;2.53;;
49972;SDS011;35865;49.798;10.968;2022-07-29T04:45:10;5.80;;;2.35;;
49972;SDS011;35865;49.798;10.968;2022-07-29T04:47:37;5.22;;;2.25;;
49972;SDS011;35865;49.798;10.968;2022-07-29T04:50:04;4.43;;;2.00;;
49972;SDS011;35865;49.798;10.968;2022-07-29T04:52:32;6.38;;;2.13;;
49972;SDS011;35865;49.798;10.968;2022-07-29T04:54:59;4.53;;;2.15;;
49972;SDS011;35865;49.798;10.968;2022-07-29T04:57:26;5.53;;;1.83;;
49972;SDS011;35865;49.798;10.968;2022-07-29T04:59:52;4.28;;;2.05;;
49972;SDS011;35865;49.798;10.968;2022-07-29T05:02:19;6.60;;;2.15;;
49972;SDS011;35865;49.798;10.968;2022-07-29T05:04:48;4.18;;;1.95;;
49972;SDS011;35865;49.798;10.968;2022-07-29T05:07:14;4.20;;;1.80;;
49972;SDS011;35865;49.798;10.968;2022-07-29T05:09:41;4.53;;;1.70;;
49972;SDS011;35865;49.798;10.968;2022-07-29T05:12:08;4.60;;;2.45;;
49972;SDS011;35865;49.798;10.968;2022-07-29T05:14:34;5.43;;;1.85;;
49972;SDS011;35865;49.798;10.968;2022-07-29T05:17:01;3.47;;;1.65;;
49972;SDS011;35865;49.798;10.968;2022-07-29T05:19:27;5.03;;;2.20;;
49972;SDS011;35865;49.798;10.968;2022-07-29T05:21:55;7.97;;;2.47;;
49972;SDS011;35865;49.798;10.968;2022-07-29T05:24:21;3.42;;;1.67;;
49972;SDS011;35865;49.798;10.968;2022-07-29T05:26:48;3.38;;;1.85;;
49972;SDS011;35865;49.798;10.968;2022-07-29T05:29:14;3.95;;;1.73;;
49972;SDS011;35865;49.798;10.968;2022-07-29T05:31:41;4.88;;;2.08;;
49972;SDS011;35865;49.798;10.968;2022-07-29T05:34:07;6.07;;;1.90;;
49972;SDS011;35865;49.798;10.968;2022-07-29T05:36:33;5.97;;;1.92;;
49972;SDS011;35865;49.798;10.968;2022-07-29T05:39:01;6.53;;;1.80;;
49972;SDS011;35865;49.798;10.968;2022-07-29T05:41:31;5.40;;;2.13;;
49972;SDS011;35865;49.798;10.968;2022-07-29T05:43:57;9.85;;;2.30;;
49972;SDS011;35865;49.798;10.968;2022-07-29T05:46:24;5.38;;;1.83;;
49972;SDS011;35865;49.798;10.968;2022-07-29T05:48:50;6.15;;;2.10;;
49972;SDS011;35865;49.798;10.968;2022-07-29T05:51:27;5.18;;;1.90;;
49972;SDS011;35865;49.798;10.968;2022-07-29T05:54:30;5.28;;;1.67;;
49972;SDS011;35865;49.798;10.968;2022-07-29T05:56:57;6.03;;;2.17;;
49972;SDS011;35865;49.798;10.968;2022-07-29T05:59:23;8.15;;;1.80;;
49972;SDS011;35865;49.798;10.968;2022-07-29T06:01:49;5.50;;;2.25;;
49972;SDS011;35865;49.798;10.968;2022-07-29T06:04:16;5.15;;;1.80;;
49972;SDS011;35865;49.798;10.968;2022-07-29T06:06:42;4.70;;;2.03;;
49972;SDS011;35865;49.798;10.968;2022-07-29T06:09:09;4.20;;;2.00;;
49972;SDS011;35865;49.798;10.968;2022-07-29T06:11:37;4.05;;;1.90;;
49972;SDS011;35865;49.798;10.968;2022-07-29T06:14:03;7.50;;;1.90;;
49972;SDS011;35865;49.798;10.968;2022-07-29T06:16:30;4.28;;;1.83;;
49972;SDS011;35865;49.798;10.968;2022-07-29T06:18:56;6.35;;;1.80;;
49972;SDS011;35865;49.798;10.968;2022-07-29T06:21:22;6.43;;;2.08;;
49972;SDS011;35865;49.798;10.968;2022-07-29T06:23:49;3.80;;;2.00;;
49972;SDS011;35865;49.798;10.968;2022-07-29T06:26:15;5.55;;;2.15;;
49972;SDS011;35865;49.798;10.968;2022-07-29T06:28:43;6.03;;;2.42;;
49972;SDS011;35865;49.798;10.968;2022-07-29T06:31:09;3.90;;;2.40;;
49972;SDS011;35865;49.798;10.968;2022-07-29T06:33:36;4.25;;;2.00;;
49972;SDS011;35865;49.798;10.968;2022-07-29T06:36:03;5.72;;;2.30;;
49972;SDS011;35865;49.798;10.968;2022-07-29T06:38:30;4.55;;;1.90;;
49972;SDS011;35865;49.798;10.968;2022-07-29T06:40:56;4.85;;;2.40;;
49972;SDS011;35865;49.798;10.968;2022-07-29T06:43:26;5.85;;;1.90;;
49972;SDS011;35865;49.798;10.968;2022-07-29T06:45:55;5.28;;;2.00;;
49972;SDS011;35865;49.798;10.968;2022-07-29T06:48:21;6.93;;;2.25;;
49972;SDS011;35865;49.798;10.968;2022-07-29T06:50:48;4.20;;;1.80;;
49972;SDS011;35865;49.798;10.968;2022-07-29T06:53:14;5.10;;;1.85;;
49972;SDS011;35865;49.798;10.968;2022-07-29T06:55:41;3.45;;;1.80;;
49972;SDS011;35865;49.798;10.968;2022-07-29T06:58:07;5.90;;;2.10;;
49972;SDS011;35865;49.798;10.968;2022-07-29T07:00:34;3.08;;;1.90;;
49972;SDS011;35865;49.798;10.968;2022-07-29T07:03:02;8.63;;;2.67;;
49972;SDS011;35865;49.798;10.968;2022-07-29T07:05:28;7.25;;;2.22;;
49972;SDS011;35865;49.798;10.968;2022-07-29T07:07:55;5.93;;;2.20;;
49972;SDS011;35865;49.798;10.968;2022-07-29T07:10:21;7.05;;;2.20;;
49972;SDS011;35865;49.798;10.968;2022-07-29T07:12:48;7.03;;;2.03;;
49972;SDS011;35865;49.798;10.968;2022-07-29T07:15:14;8.27;;;2.55;;
49972;SDS011;35865;49.798;10.968;2022-07-29T07:17:41;4.78;;;2.10;;
49972;SDS011;35865;49.798;10.968;2022-07-29T07:20:09;4.47;;;2.30;;
49972;SDS011;35865;49.798;10.968;2022-07-29T07:22:36;5.40;;;2.30;;
49972;SDS011;35865;49.798;10.968;2022-07-29T07:25:02;7.93;;;2.38;;
49972;SDS011;35865;49.798;10.968;2022-07-29T07:27:29;5.13;;;2.05;;
49972;SDS011;35865;49.798;10.968;2022-07-29T07:29:55;4.47;;;2.17;;
49972;SDS011;35865;49.798;10.968;2022-07-29T07:32:22;5.82;;;2.38;;
49972;SDS011;35865;49.798;10.968;2022-07-29T07:34:48;4.03;;;2.10;;
49972;SDS011;35865;49.798;10.968;2022-07-29T07:37:16;5.18;;;2.30;;
49972;SDS011;35865;49.798;10.968;2022-07-29T07:39:44;3.63;;;2.65;;
49972;SDS011;35865;49.798;10.968;2022-07-29T07:42:10;5.88;;;2.67;;
49972;SDS011;35865;49.798;10.968;2022-07-29T07:44:38;5.70;;;2.60;;
49972;SDS011;35865;49.798;10.968;2022-07-29T07:47:04;6.72;;;2.70;;
49972;SDS011;35865;49.798;10.968;2022-07-29T07:49:31;4.85;;;2.42;;
49972;SDS011;35865;49.798;10.968;2022-07-29T07:51:57;6.95;;;2.20;;
49972;SDS011;35865;49.798;10.968;2022-07-29T07:54:25;5.50;;;2.50;;
49972;SDS011;35865;49.798;10.968;2022-07-29T07:56:51;6.05;;;2.53;;
49972;SDS011;35865;49.798;10.968;2022-07-29T07:59:18;6.75;;;2.50;;
49972;SDS011;35865;49.798;10.968;2022-07-29T08:01:44;6.47;;;2.20;;
49972;SDS011;35865;49.798;10.968;2022-07-29T08:04:10;5.90;;;2.30;;
49972;SDS011;35865;49.798;10.968;2022-07-29T08:06:37;6.25;;;2.75;;
49972;SDS011;35865;49.798;10.968;2022-07-29T08:09:04;5.38;;;2.20;;
49972;SDS011;35865;49.798;10.968;2022-07-29T08:11:32;5.63;;;2.63;;
49972;SDS011;35865;49.798;10.968;2022-07-29T08:13:59;5.88;;;2.50;;
49972;SDS011;35865;49.798;10.968;2022-07-29T08:16:26;6.15;;;2.67;;
49972;SDS011;35865;49.798;10.968;2022-07-29T08:18:53;4.45;;;2.53;;
49972;SDS011;35865;49.798;10.968;2022-07-29T08:21:22;5.85;;;2.80;;
49972;SDS011;35865;49.798;10.968;2022-07-29T08:23:49;4.80;;;2.50;;
49972;SDS011;35865;49.798;10.968;2022-07-29T08:26:18;7.82;;;2.50;;
49972;SDS011;35865;49.798;10.968;2022-07-29T08:28:46;5.22;;;2.40;;
49972;SDS011;35865;49.798;10.968;2022-07-29T08:31:15;6.68;;;2.50;;
49972;SDS011;35865;49.798;10.968;2022-07-29T08:33:42;8.90;;;2.80;;
49972;SDS011;35865;49.798;10.968;2022-07-29T08:36:09;3.90;;;2.47;;
49972;SDS011;35865;49.798;10.968;2022-07-29T08:38:37;6.43;;;2.67;;
49972;SDS011;35865;49.798;10.968;2022-07-29T08:41:04;5.20;;;2.55;;
49972;SDS011;35865;49.798;10.968;2022-07-29T08:43:31;8.88;;;3.30;;
49972;SDS011;35865;49.798;10.968;2022-07-29T08:46:01;6.75;;;3.17;;
49972;SDS011;35865;49.798;10.968;2022-07-29T08:48:27;6.80;;;3.00;;
49972;SDS011;35865;49.798;10.968;2022-07-29T08:50:54;5.25;;;2.67;;
49972;SDS011;35865;49.798;10.968;2022-07-29T08:53:23;4.80;;;2.55;;
49972;SDS011;35865;49.798;10.968;2022-07-29T08:55:51;5.97;;;2.95;;
49972;SDS011;35865;49.798;10.968;2022-07-29T08:58:19;3.70;;;2.83;;
49972;SDS011;35865;49.798;10.968;2022-07-29T09:00:48;6.28;;;3.20;;
49972;SDS011;35865;49.798;10.968;2022-07-29T09:03:19;7.22;;;2.92;;
49972;SDS011;35865;49.798;10.968;2022-07-29T09:05:48;5.82;;;2.88;;
49972;SDS011;35865;49.798;10.968;2022-07-29T09:08:16;5.00;;;3.50;;
49972;SDS011;35865;49.798;10.968;2022-07-29T09:10:43;5.65;;;3.13;;
49972;SDS011;35865;49.798;10.968;2022-07-29T09:13:10;8.57;;;3.13;;
49972;SDS011;35865;49.798;10.968;2022-07-29T09:15:37;4.47;;;3.08;;
49972;SDS011;35865;49.798;10.968;2022-07-29T09:18:03;5.38;;;3.17;;
49972;SDS011;35865;49.798;10.968;2022-07-29T09:20:31;7.38;;;3.30;;
49972;SDS011;35865;49.798;10.968;2022-07-29T09:23:12;5.10;;;2.67;;
49972;SDS011;35865;49.798;10.968;2022-07-29T09:25:39;6.30;;;3.42;;
49972;SDS011;35865;49.798;10.968;2022-07-29T09:28:07;9.50;;;3.58;;
49972;SDS011;35865;49.798;10.968;2022-07-29T09:30:35;5.60;;;2.95;;
49972;SDS011;35865;49.798;10.968;2022-07-29T09:33:02;5.82;;;3.17;;
49972;SDS011;35865;49.798;10.968;2022-07-29T09:35:29;7.43;;;3.30;;
49972;SDS011;35865;49.798;10.968;2022-07-29T09:37:57;10.75;;;3.72;;
49972;SDS011;35865;49.798;10.968;2022-07-29T09:40:36;6.07;;;3.22;;
49972;SDS011;35865;49.798;10.968;2022-07-29T09:43:08;6.35;;;3.50;;
49972;SDS011;35865;49.798;10.968;2022-07-29T09:45:36;6.72;;;3.63;;
49972;SDS011;35865;49.798;10.968;2022-07-29T09:48:12;5.10;;;3.33;;
49972;SDS011;35865;49.798;10.968;2022-07-29T09:50:42;5.60;;;3.33;;
49972;SDS011;35865;49.798;10.968;2022-07-29T09:53:10;6.60;;;3.53;;
49972;SDS011;35865;49.798;10.968;2022-07-29T09:55:46;6.22;;;3.33;;
49972;SDS011;35865;49.798;10.968;2022-07-29T09:58:15;5.18;;;3.45;;
49972;SDS011;35865;49.798;10.968;2022-07-29T10:00:44;6.55;;;3.85;;
49972;SDS011;35865;49.798;10.968;2022-07-29T10:03:11;6.63;;;3.53;;
49972;SDS011;35865;49.798;10.968;2022-07-29T10:05:38;5.13;;;3.42;;
49972;SDS011;35865;49.798;10.968;2022-07-29T10:08:08;5.63;;;3.58;;
49972;SDS011;35865;49.798;10.968;2022-07-29T10:10:37;5.95;;;3.65;;
49972;SDS011;35865;49.798;10.968;2022-07-29T10:13:06;5.47;;;4.18;;
49972;SDS011;35865;49.798;10.968;2022-07-29T10:15:35;4.93;;;3.55;;
49972;SDS011;35865;49.798;10.968;2022-07-29T10:18:06;6.32;;;3.70;;
49972;SDS011;35865;49.798;10.968;2022-07-29T10:20:33;5.82;;;4.10;;
49972;SDS011;35865;49.798;10.968;2022-07-29T10:23:00;6.30;;;3.83;;
49972;SDS011;35865;49.798;10.968;2022-07-29T10:25:28;6.68;;;3.28;;
49972;SDS011;35865;49.798;10.968;2022-07-29T10:27:54;8.27;;;3.78;;
49972;SDS011;35865;49.798;10.968;2022-07-29T10:30:21;6.78;;;4.25;;
49972;SDS011;35865;49.798;10.968;2022-07-29T10:33:05;7.30;;;3.67;;
49972;SDS011;35865;49.798;10.968;2022-07-29T10:35:47;7.75;;;3.83;;
49972;SDS011;35865;49.798;10.968;2022-07-29T10:38:35;5.00;;;3.38;;
49972;SDS011;35865;49.798;10.968;2022-07-29T10:41:16;7.10;;;4.13;;
49972;SDS011;35865;49.798;10.968;2022-07-29T10:43:59;6.40;;;4.40;;
49972;SDS011;35865;49.798;10.968;2022-07-29T10:46:28;4.28;;;3.50;;
49972;SDS011;35865;49.798;10.968;2022-07-29T10:49:07;8.07;;;4.05;;
49972;SDS011;35865;49.798;10.968;2022-07-29T10:51:50;6.43;;;4.30;;
49972;SDS011;35865;49.798;10.968;2022-07-29T10:54:19;7.78;;;3.85;;
49972;SDS011;35865;49.798;10.968;2022-07-29T10:57:11;7.88;;;3.60;;
49972;SDS011;35865;49.798;10.968;2022-07-29T10:59:39;6.28;;;3.20;;
49972;SDS011;35865;49.798;10.968;2022-07-29T11:05:05;6.53;;;4.05;;
49972;SDS011;35865;49.798;10.968;2022-07-29T11:07:33;6.60;;;4.15;;
49972;SDS011;35865;49.798;10.968;2022-07-29T11:12:52;6.22;;;4.15;;
49972;SDS011;35865;49.798;10.968;2022-07-29T11:15:20;6.40;;;3.72;;
49972;SDS011;35865;49.798;10.968;2022-07-29T11:18:03;4.60;;;3.72;;
49972;SDS011;35865;49.798;10.968;2022-07-29T11:20:34;4.78;;;3.55;;
49972;SDS011;35865;49.798;10.968;2022-07-29T11:23:17;5.55;;;4.00;;
49972;SDS011;35865;49.798;10.968;2022-07-29T11:25:44;8.50;;;3.55;;
49972;SDS011;35865;49.798;10.968;2022-07-29T11:28:15;8.45;;;3.35;;
49972;SDS011;35865;49.798;10.968;2022-07-29T11:30:48;4.45;;;3.05;;
49972;SDS011;35865;49.798;10.968;2022-07-29T11:33:28;7.40;;;3.40;;
49972;SDS011;35865;49.798;10.968;2022-07-29T11:36:08;7.10;;;3.20;;
49972;SDS011;35865;49.798;10.968;2022-07-29T11:38:36;5.93;;;3.33;;
49972;SDS011;35865;49.798;10.968;2022-07-29T11:43:50;6.90;;;3.17;;
49972;SDS011;35865;49.798;10.968;2022-07-29T11:46:22;5.03;;;3.30;;
49972;SDS011;35865;49.798;10.968;2022-07-29T11:49:13;5.10;;;2.90;;
49972;SDS011;35865;49.798;10.968;2022-07-29T11:51:49;4.47;;;3.17;;
49972;SDS011;35865;49.798;10.968;2022-07-29T11:54:16;5.05;;;3.22;;
49972;SDS011;35865;49.798;10.968;2022-07-29T11:56:49;6.20;;;3.58;;
49972;SDS011;35865;49.798;10.968;2022-07-29T11:59:19;6.57;;;3.33;;
49972;SDS011;35865;49.798;10.968;2022-07-29T12:01:52;4.78;;;3.17;;
49972;SDS011;35865;49.798;10.968;2022-07-29T12:04:19;7.18;;;3.38;;
49972;SDS011;35865;49.798;10.968;2022-07-29T12:06:48;4.70;;;3.22;;
49972;SDS011;35865;49.798;10.968;2022-07-29T12:09:15;6.55;;;3.30;;
49972;SDS011;35865;49.798;10.968;2022-07-29T12:11:42;5.90;;;3.15;;
49972;SDS011;35865;49.798;10.968;2022-07-29T12:14:09;6.13;;;3.22;;
49972;SDS011;35865;49.798;10.968;2022-07-29T12:16:37;4.72;;;3.45;;
49972;SDS011;35865;49.798;10.968;2022-07-29T12:19:04;6.18;;;3.35;;
49972;SDS011;35865;49.798;10.968;2022-07-29T12:21:42;6.57;;;3.53;;
49972;SDS011;35865;49.798;10.968;2022-07-29T12:24:10;5.25;;;3.50;;
49972;SDS011;35865;49.798;10.968;2022-07-29T12:26:36;6.90;;;3.58;;
49972;SDS011;35865;49.798;10.968;2022-07-29T12:29:15;3.90;;;3.10;;
49972;SDS011;35865;49.798;10.968;2022-07-29T12:31:43;5.30;;;3.80;;
49972;SDS011;35865;49.798;10.968;2022-07-29T12:34:11;5.85;;;3.92;;
49972;SDS011;35865;49.798;10.968;2022-07-29T12:36:39;6.38;;;3.72;;
49972;SDS011;35865;49.798;10.968;2022-07-29T12:39:07;5.88;;;3.58;;
49972;SDS011;35865;49.798;10.968;2022-07-29T12:41:35;5.00;;;3.58;;
49972;SDS011;35865;49.798;10.968;2022-07-29T12:44:02;4.65;;;3.35;;
49972;SDS011;35865;49.798;10.968;2022-07-29T12:46:29;5.82;;;3.65;;
49972;SDS011;35865;49.798;10.968;2022-07-29T12:48:57;6.63;;;3.70;;
49972;SDS011;35865;49.798;10.968;2022-07-29T12:51:30;5.50;;;4.30;;
49972;SDS011;35865;49.798;10.968;2022-07-29T12:54:04;4.90;;;4.03;;
49972;SDS011;35865;49.798;10.968;2022-07-29T12:56:32;5.95;;;3.72;;
49972;SDS011;35865;49.798;10.968;2022-07-29T12:58:58;6.90;;;4.30;;
49972;SDS011;35865;49.798;10.968;2022-07-29T13:01:25;6.25;;;4.35;;
49972;SDS011;35865;49.798;10.968;2022-07-29T13:03:52;5.07;;;4.00;;
49972;SDS011;35865;49.798;10.968;2022-07-29T13:06:30;6.68;;;4.15;;
49972;SDS011;35865;49.798;10.968;2022-07-29T13:08:59;7.25;;;4.22;;
49972;SDS011;35865;49.798;10.968;2022-07-29T13:11:37;5.22;;;3.92;;
49972;SDS011;35865;49.798;10.968;2022-07-29T13:14:06;5.05;;;3.97;;
49972;SDS011;35865;49.798;10.968;2022-07-29T13:16:34;5.63;;;4.00;;
49972;SDS011;35865;49.798;10.968;2022-07-29T13:19:05;7.35;;;4.07;;
49972;SDS011;35865;49.798;10.968;2022-07-29T13:21:38;5.20;;;3.88;;
49972;SDS011;35865;49.798;10.968;2022-07-29T13:24:05;5.63;;;3.95;;
49972;SDS011;35865;49.798;10.968;2022-07-29T13:26:32;6.38;;;4.30;;
49972;SDS011;35865;49.798;10.968;2022-07-29T13:28:59;4.57;;;3.80;;
49972;SDS011;35865;49.798;10.968;2022-07-29T13:31:25;7.60;;;3.97;;
49972;SDS011;35865;49.798;10.968;2022-07-29T13:33:52;7.07;;;3.78;;
49972;SDS011;35865;49.798;10.968;2022-07-29T13:36:18;7.68;;;4.38;;
49972;SDS011;35865;49.798;10.968;2022-07-29T13:38:46;7.35;;;4.10;;
49972;SDS011;35865;49.798;10.968;2022-07-29T13:41:13;5.45;;;3.95;;
49972;SDS011;35865;49.798;10.968;2022-07-29T13:43:39;4.85;;;4.20;;
49972;SDS011;35865;49.798;10.968;2022-07-29T13:46:05;5.93;;;3.88;;
49972;SDS011;35865;49.798;10.968;2022-07-29T13:48:32;5.70;;;3.88;;
49972;SDS011;35865;49.798;10.968;2022-07-29T13:50:58;5.57;;;3.83;;
49972;SDS011;35865;49.798;10.968;2022-07-29T13:53:25;6.20;;;3.88;;
49972;SDS011;35865;49.798;10.968;2022-07-29T13:55:54;6.28;;;4.20;;
49972;SDS011;35865;49.798;10.968;2022-07-29T13:58:20;6.00;;;4.05;;
49972;SDS011;35865;49.798;10.968;2022-07-29T14:00:47;5.18;;;3.78;;
49972;SDS011;35865;49.798;10.968;2022-07-29T14:03:13;5.50;;;4.35;;
49972;SDS011;35865;49.798;10.968;2022-07-29T14:05:39;6.13;;;4.10;;
49972;SDS011;35865;49.798;10.968;2022-07-29T14:08:06;7.47;;;3.60;;
49972;SDS011;35865;49.798;10.968;2022-07-29T14:10:32;7.05;;;4.20;;
49972;SDS011;35865;49.798;10.968;2022-07-29T14:13:00;6.93;;;3.63;;
49972;SDS011;35865;49.798;10.968;2022-07-29T14:15:27;6.28;;;3.92;;
49972;SDS011;35865;49.798;10.968;2022-07-29T14:17:53;8.70;;;4.50;;
49972;SDS011;35865;49.798;10.968;2022-07-29T14:20:20;9.23;;;4.32;;
49972;SDS011;35865;49.798;10.968;2022-07-29T14:22:46;7.35;;;4.00;;
49972;SDS011;35865;49.798;10.968;2022-07-29T14:25:13;6.07;;;3.95;;
49972;SDS011;35865;49.798;10.968;2022-07-29T14:27:39;6.00;;;3.97;;
49972;SDS011;35865;49.798;10.968;2022-07-29T14:30:08;6.50;;;3.67;;
49972;SDS011;35865;49.798;10.968;2022-07-29T14:32:35;5.47;;;3.22;;
49972;SDS011;35865;49.798;10.968;2022-07-29T14:35:01;6.45;;;3.10;;
49972;SDS011;35865;49.798;10.968;2022-07-29T14:37:28;5.03;;;2.70;;
49972;SDS011;35865;49.798;10.968;2022-07-29T14:39:54;4.97;;;2.97;;
49972;SDS011;35865;49.798;10.968;2022-07-29T14:42:24;4.57;;;2.92;;
49972;SDS011;35865;49.798;10.968;2022-07-29T14:44:50;4.63;;;3.10;;
49972;SDS011;35865;49.798;10.968;2022-07-29T14:47:18;5.35;;;3.58;;
49972;SDS011;35865;49.798;10.968;2022-07-29T14:49:44;6.10;;;3.83;;
49972;SDS011;35865;49.798;10.968;2022-07-29T14:52:11;4.32;;;2.83;;
49972;SDS011;35865;49.798;10.968;2022-07-29T14:54:37;7.40;;;3.55;;
49972;SDS011;35865;49.798;10.968;2022-07-29T14:57:03;6.60;;;3.50;;